Terminal Aerodrome Forecast
Issued by NWS

Home | Current Version | Previous Version | Text Only | Print | Product List | Glossary On
Versions: 1 2 3 4 5 6 7 8 9 10 11 12 13
000
FTUS44 KEPZ 302300
TAFDMN
TAF
KDMN 302336Z 3100/3124 08012KT 5SM -RA OVC020
      TEMPO 3100/3104 3SM RA OVC015
     FM310400 06006KT 6SM -RA OVC015
     FM311500 10002KT P6SM VCSH BKN015 OVC100=

USA.gov is the U.S. government's official web portal to all federal, state and local government web resources and services.